createdAt,value
2019-01-21T00:01:18.253Z,80.49
2019-01-21T00:03:47.172Z,80.83
2019-01-21T00:06:16.180Z,80.83
2019-01-21T00:08:45.222Z,80.62
2019-01-21T00:11:14.171Z,80.67
2019-01-21T00:13:43.061Z,81.07
2019-01-21T00:16:12.045Z,80.57
2019-01-21T00:18:41.046Z,80.84
2019-01-21T00:21:10.093Z,81.04
2019-01-21T00:23:38.979Z,80.97
2019-01-21T00:26:07.979Z,80.91
2019-01-21T00:28:36.971Z,81.13
2019-01-21T00:31:05.913Z,81.62
2019-01-21T00:33:34.814Z,81.66
2019-01-21T00:36:03.840Z,81.69
2019-01-21T00:38:32.834Z,82.00
2019-01-21T00:41:01.742Z,81.41
2019-01-21T00:43:30.738Z,81.10
2019-01-21T00:45:59.661Z,81.24
2019-01-21T00:48:28.727Z,81.38
2019-01-21T00:50:57.748Z,81.54
2019-01-21T00:53:26.643Z,82.14
2019-01-21T00:55:55.588Z,82.47
2019-01-21T00:58:24.584Z,82.48
2019-01-21T01:00:53.610Z,82.15
2019-01-21T01:03:22.511Z,81.96
2019-01-21T01:05:51.478Z,82.06
2019-01-21T01:08:20.487Z,82.30
2019-01-21T01:10:49.478Z,82.14
2019-01-21T01:13:18.459Z,82.40
2019-01-21T01:15:47.446Z,82.27
2019-01-21T01:18:16.640Z,82.51
2019-01-21T01:20:45.629Z,82.39
2019-01-21T01:23:14.721Z,82.56
2019-01-21T01:25:43.696Z,82.64
2019-01-21T01:28:12.660Z,82.45
2019-01-21T01:30:41.680Z,82.01
2019-01-21T01:33:11.135Z,81.99
2019-01-21T01:35:40.076Z,81.96
2019-01-21T01:38:09.318Z,81.96
2019-01-21T01:40:38.189Z,81.92
2019-01-21T01:43:07.211Z,81.92
2019-01-21T01:45:36.532Z,81.95
2019-01-21T01:48:06.148Z,81.83
2019-01-21T01:50:35.098Z,82.15
2019-01-21T01:53:04.280Z,81.76
2019-01-21T01:55:33.811Z,81.71
2019-01-21T01:58:43.102Z,81.51
2019-01-21T02:01:31.232Z,81.18
2019-01-21T02:04:00.124Z,81.81
2019-01-21T02:09:24.362Z,82.36
2019-01-21T02:15:07.277Z,82.31
2019-01-21T02:17:55.697Z,82.22
2019-01-21T02:20:24.533Z,82.00
2019-01-21T02:23:14.864Z,82.04
2019-01-21T02:26:02.834Z,81.99
2019-01-21T02:28:53.623Z,81.67
2019-01-21T02:32:00.838Z,81.63
2019-01-21T02:34:51.599Z,81.53
2019-01-21T02:37:58.861Z,81.54
2019-01-21T02:40:49.208Z,81.33
2019-01-21T02:43:58.660Z,81.66
2019-01-21T02:46:43.408Z,81.93
2019-01-21T02:50:04.508Z,82.09
2019-01-21T02:53:11.778Z,82.42
2019-01-21T02:56:23.159Z,82.27
2019-01-21T02:59:25.870Z,82.12
2019-01-21T03:02:20.814Z,82.33
2019-01-21T03:05:26.653Z,82.59
2019-01-21T03:08:51.702Z,82.49
2019-01-21T03:11:43.507Z,82.49
2019-01-21T03:14:40.247Z,82.26
2019-01-21T03:17:45.581Z,82.37
2019-01-21T03:20:32.311Z,82.96
2019-01-21T03:23:41.743Z,82.74
2019-01-21T03:26:26.302Z,82.79
2019-01-21T03:29:45.543Z,82.72
2019-01-21T03:32:54.662Z,82.66
2019-01-21T03:36:01.624Z,82.57
2019-01-21T03:39:10.949Z,82.62
2019-01-21T03:42:22.903Z,82.36
2019-01-21T03:45:27.486Z,82.29
2019-01-21T03:48:17.305Z,82.36
2019-01-21T03:51:31.054Z,82.21
2019-01-21T03:54:10.519Z,82.03
2019-01-21T03:57:09.846Z,81.76
2019-01-21T04:00:15.810Z,81.54
2019-01-21T04:03:20.931Z,81.50
2019-01-21T04:06:33.387Z,81.32
2019-01-21T04:09:32.825Z,81.34
2019-01-21T04:12:28.800Z,81.21
2019-01-21T04:15:23.741Z,80.63
2019-01-21T04:18:32.985Z,80.59
2019-01-21T04:21:33.557Z,80.47
2019-01-21T04:24:52.049Z,80.68
2019-01-21T04:27:44.238Z,80.92
2019-01-21T04:30:42.597Z,80.55
2019-01-21T04:33:57.851Z,80.59
2019-01-21T04:37:09.374Z,80.37
2019-01-21T04:40:25.409Z,80.71
2019-01-21T04:43:44.696Z,80.67
2019-01-21T04:46:54.883Z,80.31
2019-01-21T04:49:54.664Z,80.50
2019-01-21T04:52:39.001Z,80.70
2019-01-21T04:55:44.151Z,80.47
2019-01-21T04:59:09.754Z,80.21
2019-01-21T05:02:01.286Z,80.18
2019-01-21T05:05:09.831Z,79.88
2019-01-21T05:08:19.519Z,79.76
2019-01-21T05:11:21.015Z,79.87
2019-01-21T05:14:03.259Z,79.81
2019-01-21T05:16:55.167Z,79.56
2019-01-21T05:19:53.981Z,79.71
2019-01-21T05:22:39.741Z,79.47
2019-01-21T05:25:26.181Z,79.45
2019-01-21T05:28:27.671Z,79.37
2019-01-21T05:31:25.628Z,79.27
2019-01-21T05:34:24.797Z,78.71
2019-01-21T05:37:14.577Z,78.79
2019-01-21T05:40:15.914Z,78.42
2019-01-21T05:43:29.117Z,78.24
2019-01-21T05:46:35.587Z,78.27
2019-01-21T05:49:41.128Z,77.80
2019-01-21T05:52:41.004Z,77.55
2019-01-21T05:55:38.908Z,77.50
2019-01-21T05:58:43.976Z,77.32
2019-01-21T06:01:48.955Z,77.63
2019-01-21T06:04:40.674Z,77.68
2019-01-21T06:07:43.944Z,77.63
2019-01-21T06:10:44.271Z,77.30
2019-01-21T06:14:00.028Z,77.30
2019-01-21T06:16:53.752Z,77.50
2019-01-21T06:20:02.643Z,77.96
2019-01-21T06:22:45.290Z,77.40
2019-01-21T06:25:39.043Z,77.57
2019-01-21T06:28:55.157Z,77.84
2019-01-21T06:32:00.955Z,77.89
2019-01-21T06:35:13.672Z,77.60
2019-01-21T06:38:14.164Z,77.37
2019-01-21T06:41:36.188Z,77.62
2019-01-21T06:44:55.236Z,77.70
2019-01-21T06:48:05.576Z,77.42
2019-01-21T06:51:04.305Z,77.72
2019-01-21T06:54:14.195Z,77.56
2019-01-21T06:57:39.225Z,77.65
2019-01-21T07:00:47.578Z,77.62
2019-01-21T07:04:12.561Z,77.39
2019-01-21T07:07:07.751Z,77.36
2019-01-21T07:09:52.642Z,77.53
2019-01-21T07:12:35.780Z,77.89
2019-01-21T07:15:44.463Z,77.76
2019-01-21T07:18:49.410Z,77.75
2019-01-21T07:21:59.973Z,77.58
2019-01-21T07:25:11.215Z,77.04
2019-01-21T07:28:27.164Z,76.94
2019-01-21T07:31:13.593Z,77.48
2019-01-21T07:34:04.124Z,77.44
2019-01-21T07:36:47.758Z,77.54
2019-01-21T07:39:49.045Z,77.58
2019-01-21T07:42:38.713Z,77.46
2019-01-21T07:45:16.088Z,77.41
2019-01-21T07:48:19.357Z,77.43
2019-01-21T07:51:31.525Z,77.40
2019-01-21T07:54:31.352Z,77.47
2019-01-21T07:57:27.203Z,77.13
2019-01-21T08:00:21.924Z,76.37
2019-01-21T08:03:40.426Z,75.75
2019-01-21T08:06:25.065Z,75.28
2019-01-21T08:09:43.392Z,75.04
2019-01-21T08:12:54.673Z,75.27
2019-01-21T08:15:56.148Z,75.31
2019-01-21T08:22:48.260Z,75.01
2019-01-21T08:26:16.323Z,74.77
2019-01-21T08:29:10.864Z,74.52
2019-01-21T08:32:21.433Z,74.66
2019-01-21T08:35:25.327Z,74.18
2019-01-21T08:38:24.982Z,74.50
2019-01-21T08:41:39.013Z,74.00
2019-01-21T08:44:46.260Z,74.28
2019-01-21T08:47:58.520Z,74.44
2019-01-21T08:51:19.795Z,73.14
2019-01-21T08:54:26.998Z,72.40
2019-01-21T08:57:34.263Z,72.49
2019-01-21T09:00:41.579Z,72.04
2019-01-21T09:06:47.920Z,71.25
2019-01-21T09:10:09.555Z,70.81
2019-01-21T09:13:16.818Z,70.62
2019-01-21T09:16:09.608Z,70.41
2019-01-21T09:19:00.631Z,70.67
2019-01-21T09:22:10.886Z,70.49
2019-01-21T09:25:18.403Z,70.63
2019-01-21T09:31:21.706Z,70.64
2019-01-21T09:34:28.938Z,70.62
2019-01-21T09:37:45.880Z,70.77
2019-01-21T09:40:53.116Z,70.81
2019-01-21T09:44:00.326Z,70.59
2019-01-21T09:46:48.463Z,70.45
2019-01-21T09:49:35.810Z,70.52
2019-01-21T09:52:23.843Z,70.95
2019-01-21T10:01:58.167Z,68.74
2019-01-21T10:04:50.466Z,69.08
2019-01-21T10:07:57.720Z,69.28
2019-01-21T10:14:06.079Z,69.52
2019-01-21T10:17:13.312Z,69.37
2019-01-21T10:19:52.667Z,69.15
2019-01-21T10:22:59.897Z,69.06
2019-01-21T10:26:07.163Z,68.65
2019-01-21T10:29:18.289Z,68.76
2019-01-21T10:35:20.172Z,68.88
2019-01-21T10:38:39.258Z,68.65
2019-01-21T10:41:50.579Z,68.05
2019-01-21T10:44:57.767Z,68.79
2019-01-21T10:47:32.567Z,69.61
2019-01-21T10:50:39.770Z,69.07
2019-01-21T10:53:47.025Z,68.89
2019-01-21T10:57:01.503Z,68.69
2019-01-21T10:59:53.385Z,70.45
2019-01-21T11:03:00.613Z,71.96
2019-01-21T11:05:54.647Z,73.84
2019-01-21T11:09:02.048Z,73.97
2019-01-21T11:12:09.347Z,74.40
2019-01-21T11:15:00.792Z,74.51
2019-01-21T11:24:45.315Z,72.56
2019-01-21T11:27:52.513Z,72.38
2019-01-21T11:30:59.782Z,72.35
2019-01-21T11:34:07.103Z,70.84
2019-01-21T11:37:14.379Z,69.88
2019-01-21T11:43:31.525Z,69.76
2019-01-21T11:46:38.815Z,69.56
2019-01-21T11:49:46.104Z,69.11
2019-01-21T11:52:46.325Z,68.79
2019-01-21T11:55:53.576Z,68.90
2019-01-21T11:59:00.777Z,69.12
2019-01-21T12:02:07.998Z,69.61
2019-01-21T12:08:29.805Z,69.23
2019-01-21T12:11:21.183Z,69.14
2019-01-21T12:17:29.928Z,68.18
2019-01-21T12:20:21.975Z,68.76
2019-01-21T12:23:29.181Z,68.64
2019-01-21T12:26:39.917Z,67.42
2019-01-21T12:29:47.118Z,66.88
2019-01-21T12:32:54.410Z,67.41
2019-01-21T12:36:01.647Z,67.17
2019-01-21T12:39:08.886Z,67.81
2019-01-21T12:42:16.101Z,67.86
2019-01-21T12:45:16.989Z,68.16
2019-01-21T12:48:08.285Z,68.31
2019-01-21T12:51:15.545Z,68.01
2019-01-21T12:54:22.810Z,68.17
2019-01-21T12:57:30.071Z,68.41
2019-01-21T13:00:22.847Z,68.35
2019-01-21T13:03:30.103Z,68.60
2019-01-21T13:06:32.435Z,68.20
2019-01-21T13:09:47.747Z,68.29
2019-01-21T13:12:54.963Z,67.89
2019-01-21T13:16:02.208Z,67.98
2019-01-21T13:19:09.432Z,68.72
2019-01-21T13:22:24.885Z,68.74
2019-01-21T13:25:19.273Z,68.02
2019-01-21T13:28:12.289Z,68.42
2019-01-21T13:31:24.950Z,68.71
2019-01-21T13:34:32.202Z,69.02
2019-01-21T13:37:39.432Z,69.41
2019-01-21T13:40:41.222Z,69.36
2019-01-21T13:43:36.763Z,69.90
2019-01-21T13:46:44.010Z,69.55
2019-01-21T13:50:04.832Z,70.06
2019-01-21T13:53:12.226Z,69.75
2019-01-21T13:56:07.603Z,70.30
2019-01-21T13:59:14.890Z,70.58
2019-01-21T14:02:05.445Z,70.72
2019-01-21T14:05:12.792Z,70.48
2019-01-21T14:08:19.990Z,70.43
2019-01-21T14:11:27.252Z,69.93
2019-01-21T14:14:22.371Z,69.59
2019-01-21T14:17:34.496Z,69.12
2019-01-21T14:20:48.417Z,69.38
2019-01-21T14:23:55.675Z,69.55
2019-01-21T14:27:09.874Z,69.59
2019-01-21T14:30:20.563Z,69.59
2019-01-21T14:33:27.788Z,69.77
2019-01-21T14:36:35.012Z,69.93
2019-01-21T14:39:42.298Z,70.02
2019-01-21T14:42:49.529Z,70.44
2019-01-21T14:45:56.778Z,70.39
2019-01-21T14:49:04.863Z,70.24
2019-01-21T14:52:12.987Z,70.71
2019-01-21T14:55:20.259Z,70.89
2019-01-21T14:58:27.467Z,71.22
2019-01-21T15:01:34.710Z,71.02
2019-01-21T15:04:41.980Z,71.38
2019-01-21T15:07:49.261Z,72.15
2019-01-21T15:10:56.497Z,72.50
2019-01-21T15:14:03.735Z,71.95
2019-01-21T15:17:11.035Z,71.87
2019-01-21T15:20:10.911Z,72.22
2019-01-21T15:23:02.237Z,72.48
2019-01-21T15:26:09.467Z,72.78
2019-01-21T15:29:16.685Z,72.67
2019-01-21T15:32:23.937Z,72.39
2019-01-21T15:35:31.156Z,72.25
2019-01-21T15:38:38.384Z,72.14
2019-01-21T15:41:45.691Z,72.39
2019-01-21T15:44:36.119Z,72.61
2019-01-21T15:47:43.351Z,72.85
2019-01-21T15:50:50.583Z,72.22
2019-01-21T15:53:57.815Z,71.80
2019-01-21T16:00:39.316Z,71.94
2019-01-21T16:03:46.598Z,71.80
2019-01-21T16:06:53.838Z,71.51
2019-01-21T16:10:01.043Z,71.40
2019-01-21T16:13:13.540Z,71.38
2019-01-21T16:16:20.765Z,71.13
2019-01-21T16:19:28.095Z,70.99
2019-01-21T16:22:35.301Z,71.11
2019-01-21T16:25:42.593Z,71.43
2019-01-21T16:28:52.612Z,71.11
2019-01-21T16:31:51.987Z,70.84
2019-01-21T16:34:44.548Z,71.11
2019-01-21T16:37:45.080Z,71.46
2019-01-21T16:40:36.774Z,71.57
2019-01-21T16:43:05.807Z,71.90
2019-01-21T16:45:34.777Z,71.50
2019-01-21T16:48:03.816Z,71.11
2019-01-21T16:50:32.820Z,70.94
2019-01-21T16:53:01.809Z,70.99
2019-01-21T16:55:30.785Z,71.10
2019-01-21T16:57:59.904Z,71.24
2019-01-21T17:00:28.849Z,71.08
2019-01-21T17:02:57.863Z,71.16
2019-01-21T17:05:26.976Z,71.59
2019-01-21T17:07:57.177Z,71.96
2019-01-21T17:10:26.219Z,72.11
2019-01-21T17:12:55.315Z,72.18
2019-01-21T17:15:24.404Z,72.01
2019-01-21T17:17:53.539Z,72.07
2019-01-21T17:20:22.790Z,72.24
2019-01-21T17:22:51.728Z,72.46
2019-01-21T17:25:20.802Z,72.35
2019-01-21T17:27:50.004Z,72.20
2019-01-21T17:30:19.278Z,72.56
2019-01-21T17:32:48.269Z,72.29
2019-01-21T17:35:17.348Z,72.32
2019-01-21T17:37:46.276Z,72.55
2019-01-21T17:40:16.908Z,72.79
2019-01-21T17:42:45.910Z,72.80
2019-01-21T17:45:17.236Z,73.26
2019-01-21T17:47:46.199Z,73.10
2019-01-21T17:51:00.405Z,73.33
2019-01-21T17:53:29.296Z,73.78
2019-01-21T17:55:58.206Z,73.57
2019-01-21T17:59:03.744Z,73.91
2019-01-21T18:01:35.749Z,73.81
2019-01-21T18:04:03.663Z,73.64
2019-01-21T18:06:32.971Z,73.31
2019-01-21T18:09:02.233Z,73.22
2019-01-21T18:11:31.179Z,73.55
2019-01-21T18:14:00.263Z,73.16
2019-01-21T18:16:29.243Z,73.18
2019-01-21T18:18:58.258Z,73.15
2019-01-21T18:21:27.441Z,73.81
2019-01-21T18:23:56.516Z,73.77
2019-01-21T18:26:25.658Z,74.02
2019-01-21T18:28:54.769Z,74.07
2019-01-21T18:31:24.105Z,74.01
2019-01-21T18:33:53.137Z,74.24
2019-01-21T18:36:22.182Z,74.66
2019-01-21T18:38:51.325Z,74.61
2019-01-21T18:41:20.365Z,74.80
2019-01-21T18:43:49.497Z,74.78
2019-01-21T18:46:18.785Z,74.39
2019-01-21T18:48:47.765Z,74.19
2019-01-21T18:51:16.783Z,74.33
2019-01-21T18:53:45.782Z,74.68
2019-01-21T18:56:14.764Z,74.57
2019-01-21T18:58:43.750Z,74.30
2019-01-21T19:01:12.798Z,74.27
2019-01-21T19:03:41.841Z,74.24
2019-01-21T19:06:10.847Z,74.14
2019-01-21T19:08:39.808Z,74.16
2019-01-21T19:11:08.862Z,73.86
2019-01-21T19:13:37.796Z,74.12
2019-01-21T19:16:06.817Z,74.20
2019-01-21T19:18:35.712Z,74.19
2019-01-21T19:21:04.731Z,74.33
2019-01-21T19:23:33.720Z,74.51
2019-01-21T19:26:03.010Z,74.95
2019-01-21T19:28:33.257Z,75.23
2019-01-21T19:31:02.187Z,75.53
2019-01-21T19:33:32.229Z,75.55
2019-01-21T19:36:01.239Z,75.91
2019-01-21T19:38:30.207Z,76.03
2019-01-21T19:40:59.267Z,76.40
2019-01-21T19:43:28.205Z,76.54
2019-01-21T19:45:57.257Z,76.66
2019-01-21T19:48:26.275Z,76.84
2019-01-21T19:50:56.157Z,76.66
2019-01-21T19:53:25.299Z,76.48
2019-01-21T19:55:54.609Z,76.72
2019-01-21T19:58:23.832Z,76.33
2019-01-21T20:00:53.064Z,76.11
2019-01-21T20:03:22.429Z,76.11
2019-01-21T20:05:51.654Z,76.40
2019-01-21T20:08:20.869Z,76.48
2019-01-21T20:10:49.948Z,76.64
2019-01-21T20:13:18.948Z,75.85
2019-01-21T20:15:47.975Z,75.51
2019-01-21T20:18:17.268Z,75.71
2019-01-21T20:20:46.433Z,75.84
2019-01-21T20:23:15.487Z,74.72
2019-01-21T20:25:44.616Z,74.52
2019-01-21T20:28:13.849Z,74.48
2019-01-21T20:30:42.883Z,74.54
2019-01-21T20:33:11.991Z,74.60
2019-01-21T20:35:41.351Z,74.40
2019-01-21T20:38:10.377Z,74.20
2019-01-21T20:40:39.523Z,74.14
2019-01-21T20:43:08.564Z,74.05
2019-01-21T20:45:37.732Z,74.12
2019-01-21T20:48:06.889Z,74.25
2019-01-21T20:50:36.654Z,74.14
2019-01-21T20:53:05.973Z,73.72
2019-01-21T20:55:35.115Z,73.81
2019-01-21T20:58:04.448Z,73.54
2019-01-21T21:00:33.605Z,73.70
2019-01-21T21:03:02.803Z,73.77
2019-01-21T21:05:32.182Z,74.05
2019-01-21T21:08:01.803Z,73.96
2019-01-21T21:10:31.373Z,74.14
2019-01-21T21:13:01.109Z,74.38
2019-01-21T21:15:32.520Z,74.48
2019-01-21T21:18:02.090Z,74.50
2019-01-21T21:20:31.460Z,74.64
2019-01-21T21:23:00.899Z,74.92
2019-01-21T21:25:30.210Z,75.19
2019-01-21T21:27:59.683Z,75.40
2019-01-21T21:30:31.591Z,76.04
2019-01-21T21:33:00.864Z,76.46
2019-01-21T21:35:32.793Z,77.50
2019-01-21T21:38:02.119Z,78.15
2019-01-21T21:40:31.648Z,78.20
2019-01-21T21:43:01.235Z,78.32
2019-01-21T21:45:30.582Z,78.59
2019-01-21T21:48:01.251Z,78.52
2019-01-21T21:50:32.677Z,78.81
2019-01-21T21:53:01.895Z,79.04
2019-01-21T21:55:31.263Z,79.54
2019-01-21T21:58:00.538Z,79.42
2019-01-21T22:00:30.253Z,79.55
2019-01-21T22:02:59.645Z,79.73
2019-01-21T22:05:28.825Z,80.19
2019-01-21T22:07:58.056Z,80.35
2019-01-21T22:10:28.985Z,80.61
2019-01-21T22:12:58.406Z,81.00
2019-01-21T22:15:28.061Z,81.39
2019-01-21T22:17:57.291Z,81.83
2019-01-21T22:20:26.859Z,82.03
2019-01-21T22:22:56.096Z,82.17
2019-01-21T22:25:25.184Z,82.48
2019-01-21T22:27:54.094Z,82.76
2019-01-21T22:30:27.662Z,83.07
2019-01-21T22:32:56.883Z,83.43
2019-01-21T22:38:34.447Z,83.74
2019-01-21T22:41:22.381Z,84.07
2019-01-21T22:44:10.528Z,84.26
2019-01-21T22:46:58.645Z,84.33
2019-01-21T22:49:46.814Z,84.50
2019-01-21T22:55:22.826Z,84.24
2019-01-21T22:58:10.941Z,84.36
2019-01-21T23:01:23.621Z,84.48
2019-01-21T23:04:13.493Z,84.78
2019-01-21T23:06:42.480Z,84.74
2019-01-21T23:09:11.476Z,84.95
2019-01-21T23:11:40.378Z,85.01
2019-01-21T23:14:09.422Z,85.12
2019-01-21T23:16:38.402Z,85.31
2019-01-21T23:19:07.335Z,84.56
2019-01-21T23:21:36.376Z,84.47
2019-01-21T23:24:05.721Z,84.75
2019-01-21T23:26:34.946Z,84.58
2019-01-21T23:29:04.130Z,84.48
2019-01-21T23:31:33.069Z,84.59
2019-01-21T23:34:01.958Z,84.21
2019-01-21T23:36:30.816Z,84.27
2019-01-21T23:39:00.634Z,84.54
2019-01-21T23:41:29.572Z,84.48
2019-01-21T23:43:58.573Z,84.63
2019-01-21T23:46:27.515Z,84.48
2019-01-21T23:48:56.426Z,84.62
2019-01-21T23:51:25.447Z,84.71
2019-01-21T23:53:54.283Z,84.37
2019-01-21T23:56:23.289Z,84.26
2019-01-21T23:58:52.237Z,83.92
